Time;durP1;ratioP1;P1;durP2;ratioP2;P2;SDS_P1;SDS_P2;PMS_P1;PMS_P2;Temp;Humidity;BMP_temperature;BMP_pressure;BME280_temperature;BME280_humidity;BME280_pressure;Samples;Min_cycle;Max_cycle;Signal;HPM_P1;HPM_P2
2024/02/18 00:00:24;;;;;;;1.40;0.90;;;;;;;3.26;72.14;101640.15;103940;1253;107870;-72
2024/02/18 00:03:12;;;;;;;2.00;1.20;;;;;;;3.26;72.48;101645.31;103591;1254;96439;-71
2024/02/18 00:05:39;;;;;;;1.50;1.10;;;;;;;3.24;72.75;101645.77;104412;1251;106427;-76
2024/02/18 00:08:09;;;;;;;3.60;2.00;;;;;;;3.27;72.72;101647.56;103837;1251;138008;-75
2024/02/18 00:10:38;;;;;;;2.80;1.60;;;;;;;3.28;72.86;101648.45;103931;1249;109980;-74
2024/02/18 00:13:07;;;;;;;1.50;1.20;;;;;;;3.32;72.96;101650.75;104700;1251;138140;-75
2024/02/18 00:15:35;;;;;;;2.00;1.00;;;;;;;3.36;72.85;101648.23;104856;1248;94703;-74
2024/02/18 00:18:03;;;;;;;1.50;0.90;;;;;;;3.34;72.25;101649.59;104429;1251;106816;-74
2024/02/18 00:20:31;;;;;;;4.30;1.00;;;;;;;3.33;72.03;101648.20;104220;1248;138124;-75
2024/02/18 00:22:58;;;;;;;1.70;1.10;;;;;;;3.34;71.65;101647.34;103945;1251;109242;-72
2024/02/18 00:25:26;;;;;;;1.60;1.20;;;;;;;3.31;71.63;101652.80;104293;1253;137206;-76
2024/02/18 00:27:54;;;;;;;1.20;0.90;;;;;;;3.30;71.57;101649.86;103729;1251;1002528;-76
2024/02/18 00:30:24;;;;;;;3.20;0.90;;;;;;;3.28;71.47;101647.39;103776;1251;107813;-74
2024/02/18 00:32:52;;;;;;;1.10;0.90;;;;;;;3.29;71.64;101652.91;103525;1253;137023;-75
2024/02/18 00:35:20;;;;;;;0.80;0.80;;;;;;;3.30;71.88;101663.25;103552;1250;109492;-75
2024/02/18 00:37:47;;;;;;;2.50;1.00;;;;;;;3.28;71.95;101661.50;103393;1250;137396;-74
2024/02/18 00:40:15;;;;;;;1.70;1.10;;;;;;;3.32;72.04;101667.42;103661;1253;97000;-75
2024/02/18 00:42:43;;;;;;;2.10;1.10;;;;;;;3.32;71.95;101666.05;103951;1251;138057;-74
2024/02/18 00:45:12;;;;;;;1.00;0.90;;;;;;;3.32;72.01;101666.73;103971;1251;96340;-75
2024/02/18 00:47:40;;;;;;;1.40;1.10;;;;;;;3.31;72.13;101661.55;104528;1251;110066;-75
2024/02/18 00:50:10;;;;;;;3.20;1.60;;;;;;;3.29;71.98;101668.58;103784;1251;137815;-76
2024/02/18 00:52:38;;;;;;;2.10;1.50;;;;;;;3.29;72.00;101674.58;104945;1251;95067;-76
2024/02/18 00:55:07;;;;;;;1.30;0.90;;;;;;;3.28;71.90;101683.84;103491;1254;138382;-77
2024/02/18 00:57:35;;;;;;;3.80;1.00;;;;;;;3.26;71.84;101685.36;103952;1251;96829;-76
2024/02/18 01:00:03;;;;;;;1.00;0.80;;;;;;;3.24;71.46;101687.91;103639;1250;110088;-74
2024/02/18 01:02:31;;;;;;;1.70;1.10;;;;;;;3.23;71.27;101692.66;103662;1251;137514;-75
2024/02/18 01:04:59;;;;;;;0.90;0.90;;;;;;;3.21;70.86;101691.93;103895;1251;96792;-74
2024/02/18 01:07:27;;;;;;;1.50;1.00;;;;;;;3.17;70.53;101691.52;103612;1251;137043;-75
2024/02/18 01:09:54;;;;;;;1.40;0.80;;;;;;;3.15;70.58;101691.30;103795;1252;96418;-75
2024/02/18 01:12:22;;;;;;;1.50;1.00;;;;;;;3.14;70.69;101690.08;103627;1249;109390;-75
2024/02/18 01:14:50;;;;;;;1.20;1.00;;;;;;;3.13;70.38;101689.55;103806;1251;137048;-76
2024/02/18 01:17:18;;;;;;;1.80;1.10;;;;;;;3.10;70.48;101691.37;103851;1251;97000;-75
2024/02/18 01:19:46;;;;;;;1.70;1.00;;;;;;;3.07;70.39;101701.28;104412;1253;137324;-75
2024/02/18 01:22:14;;;;;;;1.30;0.80;;;;;;;3.04;70.68;101705.00;103777;1251;96545;-75
2024/02/18 01:24:41;;;;;;;1.00;0.90;;;;;;;3.07;70.80;101699.56;103748;1251;137930;-75
2024/02/18 01:27:08;;;;;;;2.10;1.10;;;;;;;3.08;70.51;101698.89;105034;1249;107582;-76
2024/02/18 01:29:38;;;;;;;0.80;0.80;;;;;;;3.09;70.69;101704.76;103942;1251;96442;-73
2024/02/18 01:32:08;;;;;;;1.20;0.90;;;;;;;3.12;70.90;101706.86;103723;1251;137654;-73
2024/02/18 01:34:35;;;;;;;1.40;0.70;;;;;;;3.16;70.91;101707.48;103938;1251;96521;-73
2024/02/18 01:37:03;;;;;;;1.60;1.00;;;;;;;3.21;71.29;101708.10;103710;1251;138741;-72
2024/02/18 01:39:31;;;;;;;1.40;1.00;;;;;;;3.25;71.10;101706.83;103832;1249;1002743;-73
2024/02/18 01:41:58;;;;;;;2.20;1.20;;;;;;;3.30;70.93;101709.52;104109;1251;96449;-72
2024/02/18 01:44:26;;;;;;;1.00;0.90;;;;;;;3.32;71.07;101706.09;103516;1250;137156;-73
2024/02/18 01:46:54;;;;;;;1.10;0.90;;;;;;;3.35;70.64;101706.16;103460;1253;96436;-73
2024/02/18 01:49:22;;;;;;;1.00;0.80;;;;;;;3.33;70.27;101705.27;103363;1253;137204;-72
2024/02/18 01:51:51;;;;;;;1.20;0.80;;;;;;;3.32;70.15;101709.02;103607;1250;108557;-73
2024/02/18 01:54:19;;;;;;;1.00;0.80;;;;;;;3.30;70.17;101714.66;103592;1251;97105;-73
2024/02/18 01:56:47;;;;;;;2.30;0.80;;;;;;;3.29;70.20;101713.96;103597;1251;137418;-73
2024/02/18 01:59:15;;;;;;;5.90;1.30;;;;;;;3.29;70.03;101718.42;104896;1250;95003;-72
2024/02/18 02:01:43;;;;;;;1.90;0.90;;;;;;;3.27;70.05;101713.58;103891;1251;135866;-72
2024/02/18 02:04:10;;;;;;;1.90;0.90;;;;;;;3.27;70.20;101717.86;103582;1253;107243;-73
2024/02/18 02:06:39;;;;;;;0.80;0.80;;;;;;;3.27;70.50;101720.45;105119;1250;94764;-72
2024/02/18 02:09:07;;;;;;;1.60;1.00;;;;;;;3.28;70.34;101722.88;104790;1249;107022;-73
2024/02/18 02:11:36;;;;;;;1.40;1.00;;;;;;;3.26;70.14;101718.20;103584;1250;96968;-72
2024/02/18 02:14:04;;;;;;;1.80;0.90;;;;;;;3.22;69.97;101724.09;103697;1250;138839;-73
2024/02/18 02:16:32;;;;;;;1.90;1.20;;;;;;;3.19;70.22;101724.21;104547;1251;106972;-73
2024/02/18 02:19:00;;;;;;;1.20;0.90;;;;;;;3.18;70.10;101721.09;104842;1250;139928;-74
2024/02/18 02:21:28;;;;;;;1.30;0.90;;;;;;;3.17;70.06;101720.73;103978;1249;107371;-72
2024/02/18 02:23:56;;;;;;;1.00;0.80;;;;;;;3.15;69.70;101719.83;104540;1251;96459;-73
2024/02/18 02:26:25;;;;;;;0.90;0.60;;;;;;;3.13;69.23;101714.64;103454;1251;138824;-73
2024/02/18 02:28:57;;;;;;;0.90;0.80;;;;;;;3.09;68.58;101719.20;104637;1251;108536;-72
2024/02/18 02:31:26;;;;;;;2.00;0.70;;;;;;;3.07;68.68;101725.52;103400;1251;137634;-72
2024/02/18 02:33:53;;;;;;;0.70;0.50;;;;;;;3.05;68.05;101724.60;103868;1251;108923;-71
2024/02/18 02:36:22;;;;;;;1.10;0.60;;;;;;;3.00;67.48;101731.88;103496;1251;96319;-71
2024/02/18 02:38:49;;;;;;;1.00;0.80;;;;;;;2.97;67.89;101731.46;103495;1251;136976;-71
2024/02/18 02:41:18;;;;;;;1.30;0.80;;;;;;;2.92;68.26;101729.97;104752;1250;107748;-73
2024/02/18 02:43:45;;;;;;;0.80;0.70;;;;;;;2.90;67.86;101726.86;103501;1251;138508;-73
2024/02/18 02:46:13;;;;;;;0.80;0.60;;;;;;;2.85;67.88;101733.92;103553;1255;107952;-71
2024/02/18 02:48:40;;;;;;;1.70;0.80;;;;;;;2.83;68.09;101739.38;103472;1250;96475;-72
2024/02/18 02:51:08;;;;;;;0.70;0.70;;;;;;;2.81;68.43;101744.15;104113;1250;110013;-73
2024/02/18 02:53:36;;;;;;;1.10;0.90;;;;;;;2.82;68.59;101747.27;104867;1250;107990;-73
2024/02/18 02:56:05;;;;;;;0.80;0.70;;;;;;;2.81;68.48;101745.88;104607;1250;137808;-72
2024/02/18 02:58:32;;;;;;;0.80;0.80;;;;;;;2.83;68.23;101746.92;103566;1250;107615;-73
2024/02/18 03:01:44;;;;;;;1.10;0.70;;;;;;;2.83;68.09;101748.99;103780;1246;96491;31
2024/02/18 03:04:19;;;;;;;0.90;0.80;;;;;;;2.84;68.15;101744.21;103669;1263;109047;-73
2024/02/18 03:06:47;;;;;;;1.20;0.70;;;;;;;2.84;68.24;101746.27;102838;1261;108273;-73
2024/02/18 03:09:17;;;;;;;0.50;0.50;;;;;;;2.84;68.33;101751.42;102855;1261;96386;-73
2024/02/18 03:11:44;;;;;;;1.00;0.60;;;;;;;2.87;68.35;101760.63;102925;1257;108612;-73
2024/02/18 03:14:12;;;;;;;0.90;0.60;;;;;;;2.95;68.35;101763.03;103442;1261;137751;-74
2024/02/18 03:16:39;;;;;;;1.10;0.60;;;;;;;3.00;68.35;101766.59;102861;1260;109716;-72
2024/02/18 03:19:07;;;;;;;0.70;0.60;;;;;;;3.07;68.38;101767.61;102847;1261;137521;-73
2024/02/18 03:21:35;;;;;;;1.60;1.00;;;;;;;3.14;68.49;101766.21;103561;1260;96457;-73
2024/02/18 03:24:02;;;;;;;0.70;0.60;;;;;;;3.19;68.27;101763.39;102926;1260;107462;-72
2024/02/18 03:26:31;;;;;;;1.40;1.10;;;;;;;3.23;68.31;101764.70;102879;1263;137346;-73
2024/02/18 03:28:58;;;;;;;1.00;0.90;;;;;;;3.24;68.15;101763.52;102891;1260;110906;-73
2024/02/18 03:31:26;;;;;;;2.10;0.80;;;;;;;3.22;68.10;101762.95;103208;1260;137361;-74
2024/02/18 03:33:53;;;;;;;0.90;0.80;;;;;;;3.23;68.12;101767.98;102966;1260;96567;-74
2024/02/18 03:36:21;;;;;;;1.30;0.80;;;;;;;3.23;68.04;101773.45;103258;1263;106943;-72
2024/02/18 03:38:48;;;;;;;2.40;1.00;;;;;;;3.22;67.70;101771.88;102895;1260;137632;-73
2024/02/18 03:41:16;;;;;;;1.20;0.80;;;;;;;3.18;67.71;101770.94;103213;1260;109893;-73
2024/02/18 03:43:43;;;;;;;0.80;0.70;;;;;;;3.15;67.53;101770.70;103299;1262;137765;-74
2024/02/18 03:46:10;;;;;;;2.10;0.60;;;;;;;3.12;67.63;101774.43;102451;1260;1002389;-75
2024/02/18 03:48:37;;;;;;;0.80;0.60;;;;;;;3.11;67.64;101776.45;102896;1263;107151;-74
2024/02/18 03:51:05;;;;;;;0.60;0.60;;;;;;;3.09;67.62;101782.77;103095;1263;138136;-73
2024/02/18 03:53:32;;;;;;;1.20;0.60;;;;;;;3.08;67.44;101782.41;102879;1263;109686;-74
2024/02/18 03:56:00;;;;;;;1.10;0.60;;;;;;;3.06;67.36;101784.60;104023;1261;137145;-74
2024/02/18 03:58:27;;;;;;;1.10;0.60;;;;;;;3.03;66.35;101785.22;103141;1261;96447;-74
2024/02/18 04:00:54;;;;;;;0.50;0.50;;;;;;;2.99;66.46;101793.20;102853;1260;137609;-72
2024/02/18 04:03:22;;;;;;;0.80;0.70;;;;;;;2.97;66.41;101790.40;103102;1260;96469;-74
2024/02/18 04:05:49;;;;;;;1.20;0.40;;;;;;;2.94;66.22;101794.11;102965;1260;109478;-73
2024/02/18 04:08:16;;;;;;;1.20;0.60;;;;;;;2.91;66.26;101791.99;103056;1263;137220;-74
2024/02/18 04:10:43;;;;;;;0.60;0.60;;;;;;;2.90;66.33;101790.43;102989;1263;97106;-72
2024/02/18 04:13:11;;;;;;;0.90;0.60;;;;;;;2.89;66.04;101786.80;102862;1257;137601;-72
2024/02/18 04:15:38;;;;;;;0.40;0.40;;;;;;;2.88;66.26;101788.99;103027;1260;96456;-74
2024/02/18 04:18:06;;;;;;;0.60;0.40;;;;;;;2.84;66.20;101786.32;102952;1260;110271;-74
2024/02/18 04:20:33;;;;;;;1.50;0.60;;;;;;;2.85;66.26;101797.30;102850;1257;137239;-73
2024/02/18 04:23:00;;;;;;;0.60;0.50;;;;;;;2.85;66.40;101796.12;103456;1257;96469;-73
2024/02/18 04:25:28;;;;;;;1.30;0.60;;;;;;;2.85;66.08;101795.08;102834;1257;137467;-74
2024/02/18 04:27:55;;;;;;;0.50;0.50;;;;;;;2.82;66.01;101802.74;102913;1258;96457;-73
2024/02/18 04:30:22;;;;;;;0.50;0.50;;;;;;;2.80;65.97;101804.94;102985;1261;111040;-74
2024/02/18 04:32:50;;;;;;;1.50;0.70;;;;;;;2.78;65.79;101805.92;103699;1257;137297;-74
2024/02/18 04:35:17;;;;;;;0.80;0.60;;;;;;;2.76;65.83;101805.02;102980;1257;96973;-74
2024/02/18 04:37:45;;;;;;;1.50;0.70;;;;;;;2.75;66.02;101797.61;102907;1260;137692;-74
2024/02/18 04:40:14;;;;;;;1.70;0.70;;;;;;;2.73;66.12;101802.53;102908;1260;96463;-73
2024/02/18 04:42:41;;;;;;;0.60;0.50;;;;;;;2.72;66.28;101800.81;104306;1257;108947;-74
2024/02/18 04:45:10;;;;;;;1.00;0.60;;;;;;;2.75;66.24;101802.42;103015;1261;108016;-74
2024/02/18 04:47:37;;;;;;;0.60;0.60;;;;;;;2.76;66.26;101802.95;103048;1260;96561;-71
2024/02/18 04:50:05;;;;;;;1.10;0.60;;;;;;;2.76;66.40;101807.06;103201;1257;137105;-73
2024/02/18 04:52:34;;;;;;;0.50;0.50;;;;;;;2.76;66.38;101806.90;103122;1257;96495;-72
2024/02/18 04:55:02;;;;;;;2.30;0.70;;;;;;;2.76;66.47;101802.95;102881;1259;137134;-73
2024/02/18 04:57:30;;;;;;;1.60;0.60;;;;;;;2.73;66.50;101807.52;102877;1259;107908;-73
2024/02/18 04:59:57;;;;;;;0.90;0.60;;;;;;;2.72;66.50;101806.47;103224;1257;96450;-73
2024/02/18 05:02:25;;;;;;;2.40;0.70;;;;;;;2.70;66.46;101807.27;102858;1261;137141;-73
2024/02/18 05:04:53;;;;;;;1.60;0.80;;;;;;;2.62;66.54;101806.73;102402;1261;1003433;-74
2024/02/18 05:07:20;;;;;;;1.10;0.60;;;;;;;2.56;66.53;101808.11;102870;1263;137869;-75
2024/02/18 05:09:47;;;;;;;0.60;0.60;;;;;;;2.50;66.69;101805.02;102812;1260;107556;-75
2024/02/18 05:12:15;;;;;;;1.60;0.60;;;;;;;2.45;66.85;101803.52;102923;1263;96472;-75
2024/02/18 05:14:42;;;;;;;5.40;0.90;;;;;;;2.40;66.81;101808.58;102922;1257;137171;-75
2024/02/18 05:17:09;;;;;;;2.00;0.90;;;;;;;2.34;66.82;101812.17;102911;1263;96460;-74
2024/02/18 05:19:37;;;;;;;3.10;0.60;;;;;;;2.28;67.14;101811.14;102864;1261;138894;-75
2024/02/18 05:22:05;;;;;;;3.70;0.60;;;;;;;2.22;67.05;101808.59;103205;1260;107692;-73
2024/02/18 05:24:33;;;;;;;1.10;0.60;;;;;;;2.17;67.22;101814.31;103390;1261;96460;-74
2024/02/18 05:27:01;;;;;;;1.00;0.60;;;;;;;2.14;67.42;101814.55;102792;1259;137680;-73
2024/02/18 05:29:28;;;;;;;1.50;0.60;;;;;;;2.15;67.56;101819.36;102115;1259;1002824;-73
2024/02/18 05:31:55;;;;;;;0.80;0.50;;;;;;;2.17;67.80;101821.02;102794;1257;138134;-74
2024/02/18 05:34:23;;;;;;;1.10;0.60;;;;;;;2.21;67.94;101822.29;102879;1262;107372;-73
2024/02/18 05:36:50;;;;;;;1.30;0.60;;;;;;;2.27;67.75;101822.62;102863;1264;137325;-71
2024/02/18 05:39:18;;;;;;;1.20;0.80;;;;;;;2.30;67.80;101824.08;102969;1262;109917;-72
2024/02/18 05:41:45;;;;;;;1.80;0.60;;;;;;;2.34;67.93;101827.29;102809;1257;96605;-72
2024/02/18 05:44:13;;;;;;;0.70;0.70;;;;;;;2.36;67.88;101834.23;102753;1260;138446;-72
2024/02/18 05:46:40;;;;;;;2.80;0.80;;;;;;;2.40;67.67;101831.91;103071;1258;107206;-73
2024/02/18 05:49:07;;;;;;;1.20;0.80;;;;;;;2.40;67.44;101833.29;102838;1259;137394;-72
2024/02/18 05:51:35;;;;;;;0.90;0.70;;;;;;;2.41;67.45;101835.54;102979;1259;108172;-73
2024/02/18 05:54:02;;;;;;;1.40;0.70;;;;;;;2.41;67.41;101836.92;102753;1260;118661;-73
2024/02/18 05:56:29;;;;;;;0.60;0.60;;;;;;;2.41;67.39;101844.64;102802;1258;137204;-72
2024/02/18 05:58:56;;;;;;;2.10;0.80;;;;;;;2.41;67.46;101853.58;102855;1263;108299;-73
2024/02/18 06:01:24;;;;;;;1.40;0.70;;;;;;;2.42;67.44;101858.56;103345;1258;137362;-72
2024/02/18 06:03:51;;;;;;;2.10;1.10;;;;;;;2.43;67.57;101862.37;101379;1262;1003417;-72
2024/02/18 06:06:19;;;;;;;4.00;1.70;;;;;;;2.42;67.23;101864.24;103009;1261;96574;-72
2024/02/18 06:08:46;;;;;;;1.00;0.80;;;;;;;2.40;67.37;101865.55;102869;1259;137099;-72
2024/02/18 06:11:13;;;;;;;1.50;0.80;;;;;;;2.37;67.34;101864.13;102892;1264;107920;-72
2024/02/18 06:13:44;;;;;;;1.70;0.70;;;;;;;2.35;67.15;101868.53;102912;1257;138210;-73
2024/02/18 06:16:11;;;;;;;1.20;0.60;;;;;;;2.33;67.12;101873.08;102927;1259;108953;-71
2024/02/18 06:18:39;;;;;;;1.40;0.90;;;;;;;2.31;67.25;101875.75;103199;1264;96486;-71
2024/02/18 06:21:07;;;;;;;1.30;0.90;;;;;;;2.30;67.19;101875.58;103186;1259;137768;-72
2024/02/18 06:23:34;;;;;;;1.10;0.80;;;;;;;2.30;67.48;101870.41;103232;1264;107910;-73
2024/02/18 06:26:02;;;;;;;1.30;0.60;;;;;;;2.31;67.64;101871.65;102831;1259;138181;-72
2024/02/18 06:28:32;;;;;;;2.80;0.80;;;;;;;2.35;67.77;101872.65;102894;1259;107322;-73
2024/02/18 06:31:02;;;;;;;1.30;1.00;;;;;;;2.52;67.61;101870.34;102974;1263;138019;-74
2024/02/18 06:33:30;;;;;;;2.90;0.80;;;;;;;2.92;67.62;101875.83;103030;1259;110258;-73
2024/02/18 06:35:58;;;;;;;1.40;0.70;;;;;;;3.57;67.26;101874.63;103371;1259;107516;-73
2024/02/18 06:38:25;;;;;;;1.30;0.70;;;;;;;4.38;66.43;101873.73;102908;1258;137214;-73
2024/02/18 06:40:53;;;;;;;1.10;0.80;;;;;;;5.26;65.28;101874.58;103694;1259;108862;-73
2024/02/18 06:43:20;;;;;;;0.80;0.70;;;;;;;6.18;64.36;101875.35;102888;1259;137546;-73
2024/02/18 06:45:47;;;;;;;1.30;0.70;;;;;;;7.13;63.34;101872.31;102993;1262;110757;-75
2024/02/18 06:48:15;;;;;;;1.30;0.70;;;;;;;8.04;62.13;101867.67;102911;1263;107167;-75
2024/02/18 06:50:42;;;;;;;1.20;0.90;;;;;;;8.94;61.30;101867.91;102896;1259;137255;-74
2024/02/18 06:53:09;;;;;;;1.30;0.80;;;;;;;9.91;60.79;101867.95;102930;1263;108089;-76
2024/02/18 06:55:36;;;;;;;2.10;0.90;;;;;;;10.85;60.16;101873.38;102792;1259;137755;-74
2024/02/18 06:58:04;;;;;;;1.20;0.90;;;;;;;11.66;59.53;101871.27;102938;1258;110243;-73
2024/02/18 07:00:32;;;;;;;1.10;0.80;;;;;;;12.32;58.99;101863.17;102891;1262;107964;-72
2024/02/18 07:03:00;;;;;;;1.30;1.00;;;;;;;12.72;57.38;101862.24;104157;1260;138629;-73
2024/02/18 07:05:27;;;;;;;1.30;0.90;;;;;;;12.90;56.48;101862.13;103087;1261;108767;-73
2024/02/18 07:07:54;;;;;;;3.40;0.70;;;;;;;12.98;55.04;101860.27;103673;1259;137450;-74
2024/02/18 07:10:22;;;;;;;1.80;0.90;;;;;;;12.99;53.92;101865.48;102982;1262;109974;-71
2024/02/18 07:12:49;;;;;;;1.70;1.00;;;;;;;13.04;52.42;101869.92;102903;1262;107461;-71
2024/02/18 07:15:17;;;;;;;1.70;1.00;;;;;;;13.13;51.56;101871.19;102946;1259;96455;-73
2024/02/18 07:17:44;;;;;;;2.30;1.90;;;;;;;13.31;50.95;101874.05;102932;1259;107931;-75
2024/02/18 07:20:13;;;;;;;1.70;1.10;;;;;;;13.60;50.49;101875.08;102845;1262;139340;-69
2024/02/18 07:22:44;;;;;;;12.70;2.20;;;;;;;13.97;50.87;101870.52;102880;1260;111309;-70
2024/02/18 07:25:11;;;;;;;4.40;1.80;;;;;;;14.41;50.40;101861.72;102723;1264;138117;-65
2024/02/18 07:27:39;;;;;;;2.40;0.80;;;;;;;14.88;49.49;101866.23;103077;1257;96575;-66
2024/02/18 07:30:08;;;;;;;0.80;0.70;;;;;;;15.14;47.58;101867.34;102869;1257;108353;-72
2024/02/18 07:32:35;;;;;;;1.20;0.70;;;;;;;15.46;46.44;101867.40;102969;1262;139334;-70
2024/02/18 07:35:04;;;;;;;1.40;0.70;;;;;;;15.81;45.93;101863.31;103271;1258;109904;-77
2024/02/18 07:37:31;;;;;;;1.10;0.70;;;;;;;16.19;45.45;101854.64;102956;1259;137489;-76
2024/02/18 07:39:59;;;;;;;1.90;0.80;;;;;;;16.49;44.90;101848.83;103487;1257;96464;-68
2024/02/18 07:42:26;;;;;;;1.20;0.80;;;;;;;16.83;44.59;101846.16;104302;1257;108672;-74
2024/02/18 07:44:54;;;;;;;1.80;0.90;;;;;;;17.11;44.11;101846.11;104115;1260;138807;-74
2024/02/18 07:47:21;;;;;;;3.10;0.80;;;;;;;17.39;43.92;101845.15;103826;1259;110187;-74
2024/02/18 07:49:48;;;;;;;1.50;1.10;;;;;;;17.71;42.99;101844.21;104171;1258;138646;-73
2024/02/18 07:52:16;;;;;;;1.50;1.10;;;;;;;18.03;42.52;101842.33;104161;1257;94658;-67
2024/02/18 07:54:47;;;;;;;1.50;1.00;;;;;;;18.26;41.88;101841.11;102851;1258;106952;-70
2024/02/18 07:57:15;;;;;;;1.30;0.80;;;;;;;18.46;41.63;101847.69;102903;1262;96454;-69
2024/02/18 07:59:44;;;;;;;2.30;1.00;;;;;;;18.44;40.38;101851.83;102806;1259;111687;-72
2024/02/18 08:02:12;;;;;;;0.90;0.70;;;;;;;18.39;40.31;101849.73;102667;1258;137590;-72
2024/02/18 08:04:40;;;;;;;2.60;0.80;;;;;;;18.25;40.27;101850.45;102782;1259;96560;-72
2024/02/18 08:07:07;;;;;;;1.30;0.80;;;;;;;18.19;39.86;101857.59;102760;1259;137453;-72
2024/02/18 08:09:35;;;;;;;5.30;3.40;;;;;;;18.39;40.13;101856.08;103195;1261;96530;-72
2024/02/18 08:12:03;;;;;;;2.30;1.30;;;;;;;18.64;39.95;101861.61;104261;1258;109418;-72
2024/02/18 08:14:30;;;;;;;1.20;0.70;;;;;;;18.97;39.43;101854.13;104149;1257;137393;-72
2024/02/18 08:16:58;;;;;;;1.90;0.70;;;;;;;19.18;39.05;101858.33;104040;1259;94712;-70
2024/02/18 08:19:25;;;;;;;1.20;0.80;;;;;;;19.40;38.36;101861.48;102778;1259;137528;-69
2024/02/18 08:21:53;;;;;;;2.80;0.90;;;;;;;19.89;38.11;101851.53;103788;1258;94670;-72
2024/02/18 08:24:21;;;;;;;1.30;0.70;;;;;;;20.49;37.29;101850.67;104282;1257;109574;-72
2024/02/18 08:26:48;;;;;;;1.10;0.70;;;;;;;20.83;36.38;101850.83;103700;1258;138050;-72
2024/02/18 08:29:15;;;;;;;0.90;0.50;;;;;;;20.43;35.83;101854.50;102831;1260;96882;-71
2024/02/18 08:31:43;;;;;;;2.20;2.00;;;;;;;20.18;36.28;101852.12;102612;1259;138140;-71
2024/02/18 08:34:11;;;;;;;1.40;1.00;;;;;;;20.12;35.98;101846.59;103452;1258;94829;-74
2024/02/18 08:36:39;;;;;;;1.50;1.20;;;;;;;19.77;35.86;101842.20;103557;1259;109168;-71
2024/02/18 08:39:06;;;;;;;1.60;0.90;;;;;;;19.50;35.67;101843.56;102859;1261;137248;-71
2024/02/18 08:41:33;;;;;;;1.40;1.10;;;;;;;19.75;35.52;101847.94;102881;1260;96546;-70
2024/02/18 08:44:01;;;;;;;1.40;0.80;;;;;;;20.31;35.62;101847.45;102698;1262;137283;-72
2024/02/18 08:46:28;;;;;;;1.20;0.60;;;;;;;20.80;34.96;101849.34;102784;1263;96465;-71
2024/02/18 08:48:55;;;;;;;1.70;0.80;;;;;;;21.31;34.60;101849.27;102765;1259;140547;-67
2024/02/18 08:51:23;;;;;;;2.00;1.10;;;;;;;21.78;34.51;101845.34;102938;1263;106669;-73
2024/02/18 08:53:51;;;;;;;2.00;0.70;;;;;;;22.06;34.08;101845.81;102882;1261;96462;-70
2024/02/18 08:56:18;;;;;;;0.90;0.80;;;;;;;22.28;33.94;101850.27;102790;1263;137374;-64
2024/02/18 08:58:45;;;;;;;0.80;0.60;;;;;;;22.30;33.33;101845.39;102875;1259;96446;-69
2024/02/18 09:01:13;;;;;;;1.20;0.70;;;;;;;22.01;33.22;101845.91;102958;1258;138506;-73
2024/02/18 09:03:40;;;;;;;3.10;2.00;;;;;;;22.23;33.40;101843.28;102874;1259;107493;-67
2024/02/18 09:06:09;;;;;;;4.70;3.90;;;;;;;22.16;33.08;101842.23;103001;1259;96458;-71
2024/02/18 09:08:36;;;;;;;1.90;1.40;;;;;;;22.28;33.26;101842.48;102741;1259;137404;-68
2024/02/18 09:11:03;;;;;;;3.80;2.90;;;;;;;22.62;32.67;101845.88;102824;1262;96498;-69
2024/02/18 09:13:31;;;;;;;9.50;7.70;;;;;;;22.94;31.34;101835.52;102746;1259;137437;-69
2024/02/18 09:15:58;;;;;;;7.40;6.10;;;;;;;22.82;31.43;101842.77;102866;1257;107027;-69
2024/02/18 09:18:25;;;;;;;13.30;10.50;;;;;;;22.46;31.99;101843.05;102747;1258;96458;-67
2024/02/18 09:20:55;;;;;;;7.60;6.50;;;;;;;22.61;32.06;101847.86;102753;1259;138511;-67
2024/02/18 09:23:22;;;;;;;6.50;4.80;;;;;;;22.84;32.13;101847.76;102787;1259;96591;-70
2024/02/18 09:25:50;;;;;;;4.80;4.10;;;;;;;23.23;31.82;101850.98;102825;1262;138085;-66
2024/02/18 09:28:18;;;;;;;5.40;3.50;;;;;;;23.71;31.93;101846.86;104279;1259;107248;-68
2024/02/18 09:30:46;;;;;;;2.60;1.60;;;;;;;24.26;31.54;101844.96;103285;1257;96457;-65
2024/02/18 09:33:14;;;;;;;1.50;1.30;;;;;;;24.50;30.78;101845.05;103536;1259;107784;-73
2024/02/18 09:35:41;;;;;;;2.00;1.10;;;;;;;24.69;30.74;101846.60;103491;1259;96464;-73
2024/02/18 09:38:09;;;;;;;1.70;1.40;;;;;;;24.71;30.71;101842.23;102692;1261;137578;-70
2024/02/18 09:40:36;;;;;;;3.30;2.30;;;;;;;24.90;30.58;101841.47;102785;1257;107472;-74
2024/02/18 09:43:04;;;;;;;2.40;1.30;;;;;;;24.76;30.51;101838.35;102718;1259;137908;-71
2024/02/18 09:45:33;;;;;;;0.90;0.80;;;;;;;24.88;30.33;101831.48;104222;1258;106703;-71
2024/02/18 09:48:02;;;;;;;1.20;0.70;;;;;;;24.58;29.91;101828.33;104216;1258;94599;-73
2024/02/18 09:50:31;;;;;;;1.60;0.80;;;;;;;24.12;29.61;101825.59;104156;1258;138041;-79
2024/02/18 09:53:00;;;;;;;1.80;0.50;;;;;;;24.18;29.51;101822.92;103057;1259;107107;-74
2024/02/18 09:55:27;;;;;;;1.40;0.70;;;;;;;24.34;29.37;101821.70;102786;1259;137892;-72
2024/02/18 09:57:54;;;;;;;0.80;0.50;;;;;;;24.52;28.99;101818.05;102838;1259;106970;-75
2024/02/18 10:00:25;;;;;;;1.90;1.50;;;;;;;24.42;28.68;101815.51;102871;1257;96473;-75
2024/02/18 10:02:52;;;;;;;2.50;2.20;;;;;;;23.97;28.10;101819.83;102901;1259;137541;-69
2024/02/18 10:05:20;;;;;;;1.40;0.70;;;;;;;23.13;28.21;101827.80;102749;1261;107203;-68
2024/02/18 10:07:59;;;;;;;0.40;0.40;;;;;;;22.96;28.60;101826.91;103129;1258;137790;-67
2024/02/18 10:10:26;;;;;;;0.60;0.60;;;;;;;22.50;28.33;101825.80;102896;1259;108587;-73
2024/02/18 10:12:53;;;;;;;1.00;0.60;;;;;;;22.00;28.59;101823.77;102746;1261;138174;-71
2024/02/18 10:15:21;;;;;;;0.80;0.70;;;;;;;22.07;28.97;101822.16;103103;1259;110111;-72
2024/02/18 10:17:49;;;;;;;1.00;0.60;;;;;;;22.41;29.14;101822.42;103126;1259;107374;-78
2024/02/18 10:20:16;;;;;;;0.80;0.50;;;;;;;22.70;28.02;101815.77;103542;1259;138123;-72
2024/02/18 10:22:43;;;;;;;1.10;0.70;;;;;;;22.72;28.36;101820.09;102935;1261;106906;-72
2024/02/18 10:25:12;;;;;;;0.90;0.60;;;;;;;22.89;28.30;101815.73;103102;1259;137902;-76
2024/02/18 10:27:41;;;;;;;1.10;0.60;;;;;;;22.97;28.00;101817.59;103248;1259;109429;-78
2024/02/18 10:30:11;;;;;;;1.40;0.90;;;;;;;22.89;28.13;101809.35;102696;1260;107176;-83
2024/02/18 10:32:38;;;;;;;1.80;0.60;;;;;;;22.98;28.12;101810.30;102866;1258;138454;-82
2024/02/18 10:35:07;;;;;;;0.60;0.60;;;;;;;23.06;28.40;101805.17;102798;1261;107451;-80
2024/02/18 10:37:39;;;;;;;1.40;0.80;;;;;;;23.18;28.01;101798.95;102749;1261;137653;-84
2024/02/18 10:40:13;;;;;;;0.60;0.60;;;;;;;23.25;27.50;101792.17;102795;1259;109737;-84
2024/02/18 10:42:44;;;;;;;0.80;0.70;;;;;;;23.10;27.43;101793.04;103086;1261;108623;-85
2024/02/18 10:45:14;;;;;;;1.70;1.50;;;;;;;23.05;27.70;101795.70;102769;1262;137462;-84
2024/02/18 10:47:43;;;;;;;1.70;1.40;;;;;;;23.09;27.88;101794.55;102784;1260;107022;-85
2024/02/18 10:50:13;;;;;;;2.00;0.60;;;;;;;23.10;27.78;101790.71;102684;1261;137680;-84
2024/02/18 10:52:47;;;;;;;0.60;0.60;;;;;;;23.10;27.61;101785.41;103105;1259;110014;-86
2024/02/18 10:55:20;;;;;;;0.70;0.60;;;;;;;22.95;26.85;101778.19;103577;1261;138797;-84
2024/02/18 10:57:52;;;;;;;1.00;0.80;;;;;;;22.69;27.18;101775.95;103020;1258;96500;-84
2024/02/18 11:00:23;;;;;;;3.70;2.40;;;;;;;22.44;27.42;101773.84;102918;1261;107445;-84
2024/02/18 11:02:57;;;;;;;3.30;1.40;;;;;;;22.33;27.59;101769.91;102773;1260;137676;-84
2024/02/18 11:05:25;;;;;;;1.60;0.90;;;;;;;22.11;27.49;101767.58;102814;1260;110161;-83
2024/02/18 11:07:54;;;;;;;1.40;0.60;;;;;;;21.98;27.57;101761.58;102685;1261;137706;-84
2024/02/18 11:10:23;;;;;;;2.00;0.70;;;;;;;21.80;27.05;101754.42;102750;1261;96483;-84
2024/02/18 11:12:52;;;;;;;2.50;0.90;;;;;;;21.27;26.63;101759.59;102840;1260;107345;-85
2024/02/18 11:15:19;;;;;;;1.30;0.80;;;;;;;20.88;27.14;101758.45;102858;1260;96556;-84
2024/02/18 11:17:47;;;;;;;1.60;0.80;;;;;;;20.67;27.27;101755.63;102915;1260;110063;-84
2024/02/18 11:20:16;;;;;;;1.10;0.90;;;;;;;20.13;27.07;101747.48;102716;1260;137667;-84